Long Beach, Washington
Current Conditions -  °F | °C
As of 6:02 PM on Monday 24 Nov 2014 (Local Time) from KAST Reporting Station
Haze Haze  
Wind Chill: 54°   Ceiling: 800
Heat Index: 54°   Visibility: 4mi
Dew Point: 51°   Wind: 15mph
Humidity: 90%   Direction: 200°SSW
Pressure: 30.17"   Gusts: 33mph
Location:  46.35°N, 124.05°W
Report Text: KAST 250202Z AUTO 20013G29KT 4SM BR BKN008 OVC016 12/11 A3017 RMK AO2 PK WND 21026/0158 T01220106
Loading
Personal Weather Stations






























Interactive Weather Map New forecast layout! Learn more

10-Day Weather Forecast

Advertisements
Track Severe Weather on mobile